sensor_id;sensor_type;location;lat;lon;timestamp;pressure;altitude;pressure_sealevel;temperature;humidity
70248;BME280;57641;51.416;5.506;2023-06-26T00:01:50;101302.16;;;27.56;50.87
70248;BME280;57641;51.416;5.506;2023-06-26T00:04:16;101301.50;;;27.49;49.33
70248;BME280;57641;51.416;5.506;2023-06-26T00:06:41;101311.72;;;27.37;48.78
70248;BME280;57641;51.416;5.506;2023-06-26T00:09:07;101310.66;;;27.38;50.47
70248;BME280;57641;51.416;5.506;2023-06-26T00:11:33;101316.00;;;27.28;49.96
70248;BME280;57641;51.416;5.506;2023-06-26T00:13:59;101310.59;;;27.33;49.78
70248;BME280;57641;51.416;5.506;2023-06-26T00:16:28;101313.56;;;27.31;50.57
70248;BME280;57641;51.416;5.506;2023-06-26T00:18:53;101306.50;;;27.36;49.87
70248;BME280;57641;51.416;5.506;2023-06-26T00:21:19;101311.03;;;27.47;49.38
70248;BME280;57641;51.416;5.506;2023-06-26T00:23:45;101303.28;;;27.60;49.46
70248;BME280;57641;51.416;5.506;2023-06-26T00:26:11;101308.03;;;27.65;47.34
70248;BME280;57641;51.416;5.506;2023-06-26T00:28:37;101294.06;;;27.66;48.06
70248;BME280;57641;51.416;5.506;2023-06-26T00:31:03;101295.78;;;27.72;48.23
70248;BME280;57641;51.416;5.506;2023-06-26T00:33:29;101304.88;;;27.78;47.81
70248;BME280;57641;51.416;5.506;2023-06-26T00:35:54;101303.56;;;27.81;46.21
70248;BME280;57641;51.416;5.506;2023-06-26T00:38:19;101302.44;;;27.82;46.63
70248;BME280;57641;51.416;5.506;2023-06-26T00:40:45;101297.84;;;27.87;47.35
70248;BME280;57641;51.416;5.506;2023-06-26T00:43:10;101300.66;;;27.92;45.75
70248;BME280;57641;51.416;5.506;2023-06-26T00:45:36;101294.28;;;27.87;46.45
70248;BME280;57641;51.416;5.506;2023-06-26T00:48:02;101301.69;;;27.86;44.90
70248;BME280;57641;51.416;5.506;2023-06-26T00:50:28;101300.53;;;27.82;44.36
70248;BME280;57641;51.416;5.506;2023-06-26T00:52:54;101302.59;;;27.92;44.86
70248;BME280;57641;51.416;5.506;2023-06-26T00:55:22;101297.59;;;27.89;44.83
70248;BME280;57641;51.416;5.506;2023-06-26T00:57:48;101306.97;;;27.93;46.05
70248;BME280;57641;51.416;5.506;2023-06-26T01:00:14;101306.28;;;27.81;44.49
70248;BME280;57641;51.416;5.506;2023-06-26T01:02:40;101308.25;;;27.85;45.25
70248;BME280;57641;51.416;5.506;2023-06-26T01:05:06;101313.34;;;27.77;44.48
70248;BME280;57641;51.416;5.506;2023-06-26T01:07:34;101311.56;;;27.87;44.53
70248;BME280;57641;51.416;5.506;2023-06-26T01:10:05;101312.75;;;27.69;44.23
70248;BME280;57641;51.416;5.506;2023-06-26T01:12:32;101311.13;;;27.73;43.84
70248;BME280;57641;51.416;5.506;2023-06-26T01:14:59;101315.97;;;27.66;44.10
70248;BME280;57641;51.416;5.506;2023-06-26T01:17:26;101321.19;;;27.68;44.11
70248;BME280;57641;51.416;5.506;2023-06-26T01:19:58;101324.25;;;27.71;42.91
70248;BME280;57641;51.416;5.506;2023-06-26T01:25:20;101321.84;;;27.53;43.13
70248;BME280;57641;51.416;5.506;2023-06-26T01:27:48;101330.44;;;27.62;43.24
70248;BME280;57641;51.416;5.506;2023-06-26T01:30:16;101321.66;;;27.60;42.60
70248;BME280;57641;51.416;5.506;2023-06-26T01:32:44;101318.28;;;27.53;42.71
70248;BME280;57641;51.416;5.506;2023-06-26T01:35:11;101320.91;;;27.64;42.15
70248;BME280;57641;51.416;5.506;2023-06-26T01:37:36;101329.31;;;27.41;43.44
70248;BME280;57641;51.416;5.506;2023-06-26T01:40:02;101327.09;;;27.38;42.48
70248;BME280;57641;51.416;5.506;2023-06-26T01:42:31;101336.75;;;27.07;42.54
70248;BME280;57641;51.416;5.506;2023-06-26T01:45:02;101333.56;;;27.32;41.72
70248;BME280;57641;51.416;5.506;2023-06-26T01:47:32;101335.66;;;27.25;42.20
70248;BME280;57641;51.416;5.506;2023-06-26T01:50:17;101352.94;;;27.47;42.02
70248;BME280;57641;51.416;5.506;2023-06-26T01:52:49;101354.06;;;26.79;42.27
70248;BME280;57641;51.416;5.506;2023-06-26T01:58:03;101349.03;;;26.88;41.44
70248;BME280;57641;51.416;5.506;2023-06-26T02:00:29;101354.72;;;26.70;41.49
70248;BME280;57641;51.416;5.506;2023-06-26T02:02:54;101358.78;;;26.84;41.33
70248;BME280;57641;51.416;5.506;2023-06-26T02:05:20;101365.13;;;27.01;41.20
70248;BME280;57641;51.416;5.506;2023-06-26T02:07:46;101376.31;;;27.16;40.46
70248;BME280;57641;51.416;5.506;2023-06-26T02:10:12;101368.28;;;27.10;40.58
70248;BME280;57641;51.416;5.506;2023-06-26T02:12:38;101381.44;;;26.79;40.52
70248;BME280;57641;51.416;5.506;2023-06-26T02:15:04;101370.53;;;26.96;40.67
70248;BME280;57641;51.416;5.506;2023-06-26T02:17:30;101370.44;;;26.91;40.43
70248;BME280;57641;51.416;5.506;2023-06-26T02:19:56;101365.81;;;26.63;41.32
70248;BME280;57641;51.416;5.506;2023-06-26T02:22:22;101378.66;;;26.91;41.15
70248;BME280;57641;51.416;5.506;2023-06-26T02:24:47;101378.69;;;26.79;40.55
70248;BME280;57641;51.416;5.506;2023-06-26T02:27:13;101377.16;;;27.00;40.98
70248;BME280;57641;51.416;5.506;2023-06-26T02:29:39;101372.72;;;26.82;40.68
70248;BME280;57641;51.416;5.506;2023-06-26T02:32:06;101373.28;;;26.68;40.90
70248;BME280;57641;51.416;5.506;2023-06-26T02:34:31;101372.34;;;26.91;41.12
70248;BME280;57641;51.416;5.506;2023-06-26T02:36:57;101374.13;;;26.68;41.61
70248;BME280;57641;51.416;5.506;2023-06-26T02:39:24;101381.25;;;26.69;41.69
70248;BME280;57641;51.416;5.506;2023-06-26T02:41:49;101374.06;;;26.80;42.58
70248;BME280;57641;51.416;5.506;2023-06-26T02:44:15;101381.66;;;26.61;42.71
70248;BME280;57641;51.416;5.506;2023-06-26T02:46:40;101378.59;;;26.58;42.03
70248;BME280;57641;51.416;5.506;2023-06-26T02:49:06;101376.81;;;26.23;42.92
70248;BME280;57641;51.416;5.506;2023-06-26T02:51:33;101379.59;;;26.12;43.24
70248;BME280;57641;51.416;5.506;2023-06-26T02:53:58;101384.34;;;26.16;43.58
70248;BME280;57641;51.416;5.506;2023-06-26T02:56:24;101388.59;;;26.24;43.20
70248;BME280;57641;51.416;5.506;2023-06-26T02:58:54;101396.78;;;26.24;43.21
70248;BME280;57641;51.416;5.506;2023-06-26T03:01:20;101397.91;;;26.39;43.26
70248;BME280;57641;51.416;5.506;2023-06-26T03:03:46;101407.53;;;26.02;43.78
70248;BME280;57641;51.416;5.506;2023-06-26T03:06:13;101406.19;;;26.16;43.86
70248;BME280;57641;51.416;5.506;2023-06-26T03:08:39;101407.59;;;26.19;43.43
70248;BME280;57641;51.416;5.506;2023-06-26T03:11:08;101411.06;;;26.14;43.68
70248;BME280;57641;51.416;5.506;2023-06-26T03:13:35;101411.53;;;26.23;43.43
70248;BME280;57641;51.416;5.506;2023-06-26T03:16:01;101410.72;;;26.22;43.62
70248;BME280;57641;51.416;5.506;2023-06-26T03:18:27;101413.66;;;26.32;43.42
70248;BME280;57641;51.416;5.506;2023-06-26T03:20:54;101417.69;;;25.90;44.76
70248;BME280;57641;51.416;5.506;2023-06-26T03:23:20;101424.41;;;26.11;44.01
70248;BME280;57641;51.416;5.506;2023-06-26T03:25:46;101415.16;;;25.88;44.68
70248;BME280;57641;51.416;5.506;2023-06-26T03:28:12;101420.00;;;25.98;44.85
70248;BME280;57641;51.416;5.506;2023-06-26T03:30:37;101420.88;;;25.75;45.29
70248;BME280;57641;51.416;5.506;2023-06-26T03:33:03;101433.34;;;25.83;45.17
70248;BME280;57641;51.416;5.506;2023-06-26T03:35:28;101416.63;;;25.68;45.77
70248;BME280;57641;51.416;5.506;2023-06-26T03:37:54;101413.53;;;25.76;45.96
70248;BME280;57641;51.416;5.506;2023-06-26T03:40:19;101419.25;;;25.74;45.70
70248;BME280;57641;51.416;5.506;2023-06-26T03:42:45;101423.75;;;25.80;46.11
70248;BME280;57641;51.416;5.506;2023-06-26T03:45:10;101428.00;;;25.88;45.73
70248;BME280;57641;51.416;5.506;2023-06-26T03:47:36;101427.19;;;25.76;45.93
70248;BME280;57641;51.416;5.506;2023-06-26T03:50:01;101425.53;;;25.75;46.28
70248;BME280;57641;51.416;5.506;2023-06-26T03:52:27;101420.03;;;25.86;46.50
70248;BME280;57641;51.416;5.506;2023-06-26T03:54:59;101421.69;;;25.87;46.15
70248;BME280;57641;51.416;5.506;2023-06-26T03:57:25;101423.03;;;25.73;46.82
70248;BME280;57641;51.416;5.506;2023-06-26T03:59:51;101433.13;;;25.73;46.93
70248;BME280;57641;51.416;5.506;2023-06-26T04:02:17;101426.59;;;25.62;47.51
70248;BME280;57641;51.416;5.506;2023-06-26T04:04:42;101431.91;;;25.45;48.16
70248;BME280;57641;51.416;5.506;2023-06-26T04:07:07;101443.78;;;25.39;48.26
70248;BME280;57641;51.416;5.506;2023-06-26T04:09:33;101446.34;;;25.64;47.63
70248;BME280;57641;51.416;5.506;2023-06-26T04:11:58;101451.03;;;25.22;49.15
70248;BME280;57641;51.416;5.506;2023-06-26T04:14:24;101447.22;;;25.23;49.38
70248;BME280;57641;51.416;5.506;2023-06-26T04:16:49;101460.88;;;25.46;49.01
70248;BME280;57641;51.416;5.506;2023-06-26T04:19:15;101458.50;;;25.38;49.33
70248;BME280;57641;51.416;5.506;2023-06-26T04:21:41;101469.09;;;25.46;49.20
70248;BME280;57641;51.416;5.506;2023-06-26T04:24:06;101474.19;;;24.90;50.67
70248;BME280;57641;51.416;5.506;2023-06-26T04:26:32;101475.09;;;25.25;49.65
70248;BME280;57641;51.416;5.506;2023-06-26T04:28:57;101477.50;;;25.21;50.06
70248;BME280;57641;51.416;5.506;2023-06-26T04:31:23;101480.78;;;25.23;50.30
70248;BME280;57641;51.416;5.506;2023-06-26T04:33:48;101478.69;;;25.37;49.96
70248;BME280;57641;51.416;5.506;2023-06-26T04:36:20;101472.59;;;25.23;50.27
70248;BME280;57641;51.416;5.506;2023-06-26T04:38:46;101485.03;;;25.08;50.65
70248;BME280;57641;51.416;5.506;2023-06-26T04:41:13;101481.13;;;25.04;50.86
70248;BME280;57641;51.416;5.506;2023-06-26T04:43:39;101486.38;;;25.29;50.32
70248;BME280;57641;51.416;5.506;2023-06-26T04:46:05;101494.28;;;25.07;50.98
70248;BME280;57641;51.416;5.506;2023-06-26T04:48:31;101502.16;;;25.15;50.85
70248;BME280;57641;51.416;5.506;2023-06-26T04:50:57;101510.28;;;24.73;51.57
70248;BME280;57641;51.416;5.506;2023-06-26T04:53:24;101501.78;;;25.11;51.12
70248;BME280;57641;51.416;5.506;2023-06-26T04:55:53;101508.63;;;25.02;51.31
70248;BME280;57641;51.416;5.506;2023-06-26T04:58:19;101516.19;;;25.30;50.97
70248;BME280;57641;51.416;5.506;2023-06-26T05:00:45;101509.81;;;24.95;52.10
70248;BME280;57641;51.416;5.506;2023-06-26T05:03:12;101522.19;;;25.09;51.36
70248;BME280;57641;51.416;5.506;2023-06-26T05:05:38;101516.56;;;24.74;51.96
70248;BME280;57641;51.416;5.506;2023-06-26T05:08:25;101510.78;;;24.82;52.21
70248;BME280;57641;51.416;5.506;2023-06-26T05:10:52;101521.22;;;25.03;51.55
70248;BME280;57641;51.416;5.506;2023-06-26T05:13:25;101518.69;;;25.02;51.80
70248;BME280;57641;51.416;5.506;2023-06-26T05:15:52;101514.47;;;24.39;52.74
70248;BME280;57641;51.416;5.506;2023-06-26T05:18:17;101510.03;;;24.75;51.93
70248;BME280;57641;51.416;5.506;2023-06-26T05:20:43;101522.72;;;24.51;51.89
70248;BME280;57641;51.416;5.506;2023-06-26T05:23:11;101526.69;;;24.37;52.38
70248;BME280;57641;51.416;5.506;2023-06-26T05:25:38;101522.84;;;24.74;51.67
70248;BME280;57641;51.416;5.506;2023-06-26T05:28:03;101532.06;;;24.92;51.30
70248;BME280;57641;51.416;5.506;2023-06-26T05:30:36;101520.84;;;24.81;51.49
70248;BME280;57641;51.416;5.506;2023-06-26T05:33:02;101528.66;;;24.96;50.76
70248;BME280;57641;51.416;5.506;2023-06-26T05:35:29;101534.13;;;24.78;51.66
70248;BME280;57641;51.416;5.506;2023-06-26T05:37:58;101546.22;;;24.82;51.06
70248;BME280;57641;51.416;5.506;2023-06-26T05:40:24;101540.25;;;24.92;51.15
70248;BME280;57641;51.416;5.506;2023-06-26T05:42:50;101546.31;;;24.75;51.41
70248;BME280;57641;51.416;5.506;2023-06-26T05:45:16;101548.06;;;24.70;51.11
70248;BME280;57641;51.416;5.506;2023-06-26T05:47:42;101564.06;;;24.85;51.01
70248;BME280;57641;51.416;5.506;2023-06-26T05:50:09;101557.38;;;24.80;50.57
70248;BME280;57641;51.416;5.506;2023-06-26T05:52:35;101563.09;;;23.99;52.21
70248;BME280;57641;51.416;5.506;2023-06-26T05:55:02;101555.97;;;24.23;51.62
70248;BME280;57641;51.416;5.506;2023-06-26T05:57:29;101568.09;;;24.64;51.07
70248;BME280;57641;51.416;5.506;2023-06-26T05:59:55;101554.75;;;24.37;51.53
70248;BME280;57641;51.416;5.506;2023-06-26T06:02:21;101558.34;;;24.86;50.31
70248;BME280;57641;51.416;5.506;2023-06-26T06:04:47;101562.97;;;25.04;49.96
70248;BME280;57641;51.416;5.506;2023-06-26T06:07:12;101569.41;;;25.09;49.54
70248;BME280;57641;51.416;5.506;2023-06-26T06:09:38;101577.72;;;25.14;49.51
70248;BME280;57641;51.416;5.506;2023-06-26T06:12:07;101578.44;;;24.92;50.09
70248;BME280;57641;51.416;5.506;2023-06-26T06:14:36;101578.09;;;24.88;49.97
70248;BME280;57641;51.416;5.506;2023-06-26T06:17:01;101593.88;;;23.75;52.17
70248;BME280;57641;51.416;5.506;2023-06-26T06:19:27;101585.94;;;24.60;50.38
70248;BME280;57641;51.416;5.506;2023-06-26T06:21:52;101595.66;;;24.74;50.28
70248;BME280;57641;51.416;5.506;2023-06-26T06:24:18;101595.66;;;24.92;49.85
70248;BME280;57641;51.416;5.506;2023-06-26T06:26:44;101593.16;;;24.54;50.04
70248;BME280;57641;51.416;5.506;2023-06-26T06:29:09;101613.34;;;24.28;50.96
70248;BME280;57641;51.416;5.506;2023-06-26T06:31:35;101615.34;;;24.76;50.05
70248;BME280;57641;51.416;5.506;2023-06-26T06:34:00;101612.91;;;24.86;49.21
70248;BME280;57641;51.416;5.506;2023-06-26T06:36:26;101606.47;;;24.80;49.62
70248;BME280;57641;51.416;5.506;2023-06-26T06:38:52;101605.50;;;24.93;49.01
70248;BME280;57641;51.416;5.506;2023-06-26T06:41:17;101600.63;;;25.13;48.48
70248;BME280;57641;51.416;5.506;2023-06-26T06:43:43;101606.69;;;25.15;48.75
70248;BME280;57641;51.416;5.506;2023-06-26T06:46:08;101606.25;;;25.30;48.53
70248;BME280;57641;51.416;5.506;2023-06-26T06:48:34;101618.47;;;24.98;48.65
70248;BME280;57641;51.416;5.506;2023-06-26T06:51:00;101616.06;;;25.19;48.31
70248;BME280;57641;51.416;5.506;2023-06-26T06:53:26;101622.13;;;25.21;47.84
70248;BME280;57641;51.416;5.506;2023-06-26T06:55:51;101641.72;;;24.64;49.43
70248;BME280;57641;51.416;5.506;2023-06-26T06:58:17;101634.13;;;25.20;48.19
70248;BME280;57641;51.416;5.506;2023-06-26T07:00:44;101642.94;;;25.34;48.00
70248;BME280;57641;51.416;5.506;2023-06-26T07:03:10;101647.00;;;25.61;47.19
70248;BME280;57641;51.416;5.506;2023-06-26T07:05:36;101632.84;;;24.87;47.95
70248;BME280;57641;51.416;5.506;2023-06-26T07:08:02;101646.22;;;25.24;47.04
70248;BME280;57641;51.416;5.506;2023-06-26T07:10:28;101647.41;;;25.47;46.64
70248;BME280;57641;51.416;5.506;2023-06-26T07:12:54;101654.81;;;25.58;46.87
70248;BME280;57641;51.416;5.506;2023-06-26T07:15:19;101655.38;;;25.48;46.31
70248;BME280;57641;51.416;5.506;2023-06-26T07:17:45;101659.19;;;25.29;46.41
70248;BME280;57641;51.416;5.506;2023-06-26T07:20:10;101663.44;;;25.55;46.81
70248;BME280;57641;51.416;5.506;2023-06-26T07:22:41;101665.31;;;25.43;46.88
70248;BME280;57641;51.416;5.506;2023-06-26T07:25:07;101665.44;;;25.48;47.09
70248;BME280;57641;51.416;5.506;2023-06-26T07:27:39;101676.59;;;25.46;46.69
70248;BME280;57641;51.416;5.506;2023-06-26T07:30:06;101680.19;;;25.29;47.30
70248;BME280;57641;51.416;5.506;2023-06-26T07:32:34;101680.88;;;25.54;47.38
70248;BME280;57641;51.416;5.506;2023-06-26T07:35:00;101679.88;;;25.37;47.13
70248;BME280;57641;51.416;5.506;2023-06-26T07:37:25;101692.28;;;25.21;47.52
70248;BME280;57641;51.416;5.506;2023-06-26T07:39:50;101692.63;;;25.43;46.87
70248;BME280;57641;51.416;5.506;2023-06-26T07:42:16;101695.97;;;25.27;46.73
70248;BME280;57641;51.416;5.506;2023-06-26T07:44:42;101696.72;;;25.34;47.25
70248;BME280;57641;51.416;5.506;2023-06-26T07:47:08;101698.09;;;25.24;47.43
70248;BME280;57641;51.416;5.506;2023-06-26T07:49:33;101699.75;;;25.26;47.18
70248;BME280;57641;51.416;5.506;2023-06-26T07:51:59;101704.22;;;25.56;46.98
70248;BME280;57641;51.416;5.506;2023-06-26T07:54:24;101714.28;;;25.56;47.02
70248;BME280;57641;51.416;5.506;2023-06-26T07:56:57;101703.00;;;25.34;47.28
70248;BME280;57641;51.416;5.506;2023-06-26T07:59:25;101719.44;;;25.46;47.01
70248;BME280;57641;51.416;5.506;2023-06-26T08:01:52;101719.75;;;25.56;46.27
70248;BME280;57641;51.416;5.506;2023-06-26T08:04:23;101718.31;;;25.83;45.17
70248;BME280;57641;51.416;5.506;2023-06-26T08:06:50;101715.81;;;25.82;45.49
70248;BME280;57641;51.416;5.506;2023-06-26T08:09:17;101714.25;;;25.74;45.36
70248;BME280;57641;51.416;5.506;2023-06-26T08:11:44;101714.97;;;25.70;45.79
70248;BME280;57641;51.416;5.506;2023-06-26T08:14:10;101713.63;;;25.24;47.02
70248;BME280;57641;51.416;5.506;2023-06-26T08:16:40;101721.97;;;25.47;46.31
70248;BME280;57641;51.416;5.506;2023-06-26T08:19:07;101724.09;;;25.75;45.90
70248;BME280;57641;51.416;5.506;2023-06-26T08:21:33;101735.56;;;25.84;45.18
70248;BME280;57641;51.416;5.506;2023-06-26T08:23:59;101725.47;;;25.18;46.40
70248;BME280;57641;51.416;5.506;2023-06-26T08:26:24;101714.22;;;25.62;45.67
70248;BME280;57641;51.416;5.506;2023-06-26T08:28:49;101723.66;;;25.78;45.34
70248;BME280;57641;51.416;5.506;2023-06-26T08:31:16;101720.56;;;25.75;45.28
70248;BME280;57641;51.416;5.506;2023-06-26T08:33:41;101723.44;;;25.91;45.31
70248;BME280;57641;51.416;5.506;2023-06-26T08:36:07;101733.84;;;25.53;45.86
70248;BME280;57641;51.416;5.506;2023-06-26T08:38:32;101742.72;;;25.67;44.76
70248;BME280;57641;51.416;5.506;2023-06-26T08:40:58;101739.41;;;26.18;43.32
70248;BME280;57641;51.416;5.506;2023-06-26T08:43:25;101747.94;;;25.98;42.92
70248;BME280;57641;51.416;5.506;2023-06-26T08:45:51;101732.00;;;26.25;43.37
70248;BME280;57641;51.416;5.506;2023-06-26T08:48:17;101736.84;;;26.23;42.78
70248;BME280;57641;51.416;5.506;2023-06-26T08:50:44;101741.94;;;26.19;41.40
70248;BME280;57641;51.416;5.506;2023-06-26T08:55:45;101751.47;;;26.28;39.42
70248;BME280;57641;51.416;5.506;2023-06-26T08:58:11;101758.91;;;26.63;38.49
70248;BME280;57641;51.416;5.506;2023-06-26T09:00:38;101768.53;;;26.65;37.90
70248;BME280;57641;51.416;5.506;2023-06-26T09:03:04;101754.72;;;26.60;38.18
70248;BME280;57641;51.416;5.506;2023-06-26T09:05:29;101757.91;;;26.34;38.22
70248;BME280;57641;51.416;5.506;2023-06-26T09:07:57;101753.53;;;26.33;38.78
70248;BME280;57641;51.416;5.506;2023-06-26T09:10:24;101761.97;;;26.66;38.47
70248;BME280;57641;51.416;5.506;2023-06-26T09:12:50;101763.78;;;26.72;38.12
70248;BME280;57641;51.416;5.506;2023-06-26T09:15:18;101759.28;;;26.89;38.29
70248;BME280;57641;51.416;5.506;2023-06-26T09:17:44;101757.63;;;27.00;38.88
70248;BME280;57641;51.416;5.506;2023-06-26T09:20:10;101757.97;;;26.92;38.04
70248;BME280;57641;51.416;5.506;2023-06-26T09:22:37;101764.84;;;26.71;37.77
70248;BME280;57641;51.416;5.506;2023-06-26T09:25:05;101768.63;;;26.47;37.48
70248;BME280;57641;51.416;5.506;2023-06-26T09:27:31;101786.91;;;25.93;37.54
70248;BME280;57641;51.416;5.506;2023-06-26T09:29:57;101760.50;;;25.57;37.89
70248;BME280;57641;51.416;5.506;2023-06-26T09:32:27;101765.81;;;25.82;37.69
70248;BME280;57641;51.416;5.506;2023-06-26T09:34:53;101770.66;;;25.69;38.09
70248;BME280;57641;51.416;5.506;2023-06-26T09:37:21;101787.06;;;26.40;36.04
70248;BME280;57641;51.416;5.506;2023-06-26T09:39:48;101800.38;;;26.36;35.75
70248;BME280;57641;51.416;5.506;2023-06-26T09:42:14;101792.75;;;26.27;36.61
70248;BME280;57641;51.416;5.506;2023-06-26T09:44:47;101798.34;;;26.32;37.38
70248;BME280;57641;51.416;5.506;2023-06-26T09:47:16;101793.00;;;26.37;36.17
70248;BME280;57641;51.416;5.506;2023-06-26T09:49:43;101800.56;;;25.93;36.28
70248;BME280;57641;51.416;5.506;2023-06-26T09:52:09;101810.16;;;25.66;36.36
70248;BME280;57641;51.416;5.506;2023-06-26T09:54:34;101818.06;;;26.34;35.64
70248;BME280;57641;51.416;5.506;2023-06-26T09:57:11;101819.88;;;26.10;34.44
70248;BME280;57641;51.416;5.506;2023-06-26T09:59:37;101807.50;;;26.49;34.30
70248;BME280;57641;51.416;5.506;2023-06-26T10:02:03;101811.75;;;26.03;35.21
70248;BME280;57641;51.416;5.506;2023-06-26T10:04:29;101809.41;;;26.37;35.40
70248;BME280;57641;51.416;5.506;2023-06-26T10:06:56;101815.03;;;26.77;35.78
70248;BME280;57641;51.416;5.506;2023-06-26T10:09:23;101802.44;;;26.53;35.40
70248;BME280;57641;51.416;5.506;2023-06-26T10:11:57;101812.44;;;26.82;34.56
70248;BME280;57641;51.416;5.506;2023-06-26T10:14:33;101819.13;;;26.98;31.68
70248;BME280;57641;51.416;5.506;2023-06-26T10:17:03;101829.72;;;26.29;32.72
70248;BME280;57641;51.416;5.506;2023-06-26T10:19:29;101816.25;;;26.69;33.10
70248;BME280;57641;51.416;5.506;2023-06-26T10:21:58;101814.09;;;26.83;33.18
70248;BME280;57641;51.416;5.506;2023-06-26T10:24:26;101820.28;;;26.78;34.09
70248;BME280;57641;51.416;5.506;2023-06-26T10:27:05;101813.31;;;27.17;33.37
70248;BME280;57641;51.416;5.506;2023-06-26T10:29:35;101814.94;;;26.83;32.39
70248;BME280;57641;51.416;5.506;2023-06-26T10:32:04;101817.09;;;27.28;32.52
70248;BME280;57641;51.416;5.506;2023-06-26T10:34:31;101824.09;;;27.36;31.81
70248;BME280;57641;51.416;5.506;2023-06-26T10:37:03;101820.34;;;27.02;30.89
70248;BME280;57641;51.416;5.506;2023-06-26T10:39:49;101832.47;;;27.06;30.53
70248;BME280;57641;51.416;5.506;2023-06-26T10:42:17;101834.56;;;26.69;32.21
70248;BME280;57641;51.416;5.506;2023-06-26T10:44:45;101836.28;;;27.05;31.66
70248;BME280;57641;51.416;5.506;2023-06-26T10:47:28;101834.09;;;26.83;31.44
70248;BME280;57641;51.416;5.506;2023-06-26T10:49:54;101827.34;;;26.98;31.55
70248;BME280;57641;51.416;5.506;2023-06-26T10:52:19;101847.94;;;27.12;30.78
70248;BME280;57641;51.416;5.506;2023-06-26T10:54:45;101846.94;;;27.41;32.01
70248;BME280;57641;51.416;5.506;2023-06-26T10:57:10;101830.81;;;27.80;32.72
70248;BME280;57641;51.416;5.506;2023-06-26T10:59:39;101849.91;;;27.75;31.74
70248;BME280;57641;51.416;5.506;2023-06-26T11:02:05;101843.63;;;27.51;30.09
70248;BME280;57641;51.416;5.506;2023-06-26T11:07:22;101842.81;;;27.39;30.08
70248;BME280;57641;51.416;5.506;2023-06-26T11:12:53;101847.56;;;27.31;29.26
70248;BME280;57641;51.416;5.506;2023-06-26T11:15:19;101851.97;;;26.98;31.02
70248;BME280;57641;51.416;5.506;2023-06-26T11:17:45;101855.19;;;27.18;30.28
70248;BME280;57641;51.416;5.506;2023-06-26T11:20:14;101863.97;;;26.85;29.94
70248;BME280;57641;51.416;5.506;2023-06-26T11:22:42;101864.38;;;27.00;29.85
70248;BME280;57641;51.416;5.506;2023-06-26T11:25:09;101860.53;;;27.48;30.21
70248;BME280;57641;51.416;5.506;2023-06-26T11:30:04;101861.50;;;27.30;30.48
70248;BME280;57641;51.416;5.506;2023-06-26T11:32:30;101869.03;;;27.23;30.61
70248;BME280;57641;51.416;5.506;2023-06-26T11:34:58;101866.88;;;27.02;31.51
70248;BME280;57641;51.416;5.506;2023-06-26T11:37:24;101872.22;;;27.31;30.69
70248;BME280;57641;51.416;5.506;2023-06-26T11:39:50;101882.91;;;26.98;31.02
70248;BME280;57641;51.416;5.506;2023-06-26T11:42:19;101872.56;;;27.47;33.11
70248;BME280;57641;51.416;5.506;2023-06-26T11:44:47;101875.53;;;27.45;32.13
70248;BME280;57641;51.416;5.506;2023-06-26T11:47:17;101879.75;;;27.88;31.52
70248;BME280;57641;51.416;5.506;2023-06-26T11:49:47;101886.88;;;28.12;31.75
70248;BME280;57641;51.416;5.506;2023-06-26T11:52:13;101886.03;;;28.00;30.65
70248;BME280;57641;51.416;5.506;2023-06-26T11:54:39;101908.16;;;28.10;30.42
70248;BME280;57641;51.416;5.506;2023-06-26T11:57:05;101907.44;;;28.26;30.46
70248;BME280;57641;51.416;5.506;2023-06-26T11:59:38;101906.59;;;27.39;29.77
70248;BME280;57641;51.416;5.506;2023-06-26T12:02:09;101905.06;;;27.43;30.76
70248;BME280;57641;51.416;5.506;2023-06-26T12:04:41;101914.22;;;27.14;31.67
70248;BME280;57641;51.416;5.506;2023-06-26T12:07:08;101919.72;;;26.31;32.90
70248;BME280;57641;51.416;5.506;2023-06-26T12:09:42;101917.41;;;26.87;31.97
70248;BME280;57641;51.416;5.506;2023-06-26T12:12:12;101916.97;;;26.91;32.67
70248;BME280;57641;51.416;5.506;2023-06-26T12:14:39;101919.72;;;27.49;32.05
70248;BME280;57641;51.416;5.506;2023-06-26T12:17:13;101915.78;;;27.68;31.54
70248;BME280;57641;51.416;5.506;2023-06-26T12:19:48;101922.72;;;27.70;31.35
70248;BME280;57641;51.416;5.506;2023-06-26T12:22:14;101922.94;;;27.81;30.08
70248;BME280;57641;51.416;5.506;2023-06-26T12:24:39;101918.41;;;27.28;31.00
70248;BME280;57641;51.416;5.506;2023-06-26T12:27:10;101929.03;;;26.83;31.76
70248;BME280;57641;51.416;5.506;2023-06-26T12:29:37;101919.00;;;27.18;31.27
70248;BME280;57641;51.416;5.506;2023-06-26T12:32:04;101924.19;;;26.97;31.83
70248;BME280;57641;51.416;5.506;2023-06-26T12:34:34;101917.34;;;27.06;31.06
70248;BME280;57641;51.416;5.506;2023-06-26T12:37:02;101921.63;;;27.37;30.65
70248;BME280;57641;51.416;5.506;2023-06-26T12:39:29;101929.47;;;26.68;29.72
70248;BME280;57641;51.416;5.506;2023-06-26T12:41:56;101931.66;;;27.54;29.33
70248;BME280;57641;51.416;5.506;2023-06-26T12:44:26;101928.03;;;27.07;27.44
70248;BME280;57641;51.416;5.506;2023-06-26T12:46:57;101933.19;;;27.50;28.79
70248;BME280;57641;51.416;5.506;2023-06-26T12:51:55;101927.72;;;27.39;28.87
70248;BME280;57641;51.416;5.506;2023-06-26T12:54:21;101929.56;;;26.92;28.85
70248;BME280;57641;51.416;5.506;2023-06-26T12:56:46;101935.81;;;27.22;28.33
70248;BME280;57641;51.416;5.506;2023-06-26T12:59:12;101925.34;;;27.54;28.98
70248;BME280;57641;51.416;5.506;2023-06-26T13:01:37;101925.28;;;27.77;29.64
70248;BME280;57641;51.416;5.506;2023-06-26T13:04:03;101934.69;;;27.93;30.19
70248;BME280;57641;51.416;5.506;2023-06-26T13:06:29;101931.56;;;28.12;30.12
70248;BME280;57641;51.416;5.506;2023-06-26T13:08:54;101935.22;;;27.55;30.34